createdAt,value
2022-11-13T00:01:26.381Z,7.40
2022-11-13T00:04:12.789Z,7.34
2022-11-13T00:06:59.583Z,7.03
2022-11-13T00:09:45.303Z,7.17
2022-11-13T00:12:30.904Z,7.18
2022-11-13T00:15:16.761Z,7.08
2022-11-13T00:18:03.285Z,7.30
2022-11-13T00:20:48.637Z,7.11
2022-11-13T00:23:35.980Z,7.13
2022-11-13T00:26:24.629Z,7.33
2022-11-13T00:29:10.021Z,7.35
2022-11-13T00:31:55.674Z,7.29
2022-11-13T00:34:47.565Z,7.15
2022-11-13T00:37:34.143Z,7.29
2022-11-13T00:40:19.795Z,7.28
2022-11-13T00:43:05.549Z,7.19
2022-11-13T00:45:51.542Z,6.98
2022-11-13T00:48:37.330Z,7.34
2022-11-13T00:51:23.217Z,7.33
2022-11-13T00:54:08.778Z,6.84
2022-11-13T00:56:54.302Z,7.21
2022-11-13T00:59:39.674Z,7.03
2022-11-13T01:02:25.113Z,6.83
2022-11-13T01:05:10.881Z,6.90
2022-11-13T01:07:56.451Z,6.96
2022-11-13T01:10:53.229Z,7.01
2022-11-13T01:13:40.748Z,6.89
2022-11-13T01:16:28.388Z,6.91
2022-11-13T01:19:14.340Z,6.84
2022-11-13T01:22:00.393Z,6.81
2022-11-13T01:24:46.071Z,6.97
2022-11-13T01:27:31.645Z,6.59
2022-11-13T01:30:17.296Z,6.99
2022-11-13T01:33:02.695Z,6.77
2022-11-13T01:35:47.915Z,7.01
2022-11-13T01:38:36.566Z,6.88
2022-11-13T01:41:24.849Z,6.74
2022-11-13T01:44:13.670Z,6.64
2022-11-13T01:46:59.506Z,6.87
2022-11-13T01:49:46.708Z,6.53
2022-11-13T01:52:36.331Z,6.66
2022-11-13T01:55:22.018Z,6.47
2022-11-13T01:58:10.496Z,6.54
2022-11-13T02:00:56.252Z,6.46
2022-11-13T02:03:41.875Z,6.82
2022-11-13T02:06:33.466Z,6.43
2022-11-13T02:09:24.777Z,6.77
2022-11-13T02:12:16.301Z,6.77
2022-11-13T02:15:05.690Z,6.71
2022-11-13T02:17:55.633Z,6.94
2022-11-13T02:20:50.362Z,6.89
2022-11-13T02:23:41.634Z,6.87
2022-11-13T02:26:29.563Z,6.42
2022-11-13T02:29:15.548Z,6.39
2022-11-13T02:32:01.074Z,6.66
2022-11-13T02:34:46.591Z,6.30
2022-11-13T02:37:32.262Z,6.54
2022-11-13T02:40:18.727Z,6.68
2022-11-13T02:43:04.411Z,6.61
2022-11-13T02:45:49.791Z,6.36
2022-11-13T02:48:35.149Z,6.65
2022-11-13T02:51:20.261Z,6.83
2022-11-13T02:54:05.893Z,6.66
2022-11-13T02:56:51.780Z,6.64
2022-11-13T02:59:37.428Z,6.48
2022-11-13T03:02:22.788Z,6.71
2022-11-13T03:05:13.537Z,6.68
2022-11-13T03:07:59.469Z,6.57
2022-11-13T03:10:44.944Z,6.76
2022-11-13T03:13:30.517Z,6.42
2022-11-13T03:16:17.555Z,6.74
2022-11-13T03:19:04.073Z,6.53
2022-11-13T03:21:49.737Z,6.74
2022-11-13T03:24:35.172Z,6.81
2022-11-13T03:27:21.164Z,6.72
2022-11-13T03:30:07.550Z,6.43
2022-11-13T03:32:55.380Z,6.59
2022-11-13T03:35:45.477Z,6.77
2022-11-13T03:38:32.875Z,6.68
2022-11-13T03:41:18.183Z,6.72
2022-11-13T03:44:03.703Z,6.69
2022-11-13T03:46:49.337Z,6.47
2022-11-13T03:49:34.757Z,6.64
2022-11-13T03:52:20.430Z,6.64
2022-11-13T03:55:06.225Z,6.67
2022-11-13T03:57:51.663Z,6.48
2022-11-13T04:00:38.808Z,6.48
2022-11-13T04:03:24.651Z,6.68
2022-11-13T04:06:10.635Z,6.69
2022-11-13T04:08:56.210Z,6.41
2022-11-13T04:11:41.763Z,6.15
2022-11-13T04:14:27.150Z,6.42
2022-11-13T04:17:12.541Z,6.33
2022-11-13T04:19:58.199Z,6.35
2022-11-13T04:22:43.682Z,6.49
2022-11-13T04:25:29.370Z,6.38
2022-11-13T04:28:14.733Z,6.42
2022-11-13T04:31:00.319Z,6.20
2022-11-13T04:33:46.065Z,6.30
2022-11-13T04:36:31.546Z,6.21
2022-11-13T04:39:17.066Z,6.22
2022-11-13T04:42:21.011Z,6.06
2022-11-13T04:45:07.056Z,6.00
2022-11-13T04:47:52.552Z,5.75
2022-11-13T04:50:38.100Z,6.18
2022-11-13T04:53:23.565Z,6.12
2022-11-13T04:56:09.097Z,5.83
2022-11-13T04:58:54.475Z,6.15
2022-11-13T05:01:40.328Z,5.75
2022-11-13T05:04:25.720Z,6.09
2022-11-13T05:07:11.981Z,6.12
2022-11-13T05:09:57.326Z,6.04
2022-11-13T05:12:42.663Z,5.98
2022-11-13T05:15:28.248Z,6.02
2022-11-13T05:18:13.916Z,6.00
2022-11-13T05:20:59.614Z,5.82
2022-11-13T05:23:45.393Z,5.95
2022-11-13T05:26:31.290Z,5.91
2022-11-13T05:29:16.886Z,5.88
2022-11-13T05:32:02.715Z,5.90
2022-11-13T05:34:48.316Z,6.00
2022-11-13T05:37:33.693Z,5.77
2022-11-13T05:40:18.959Z,5.75
2022-11-13T05:43:04.348Z,5.85
2022-11-13T05:45:49.803Z,5.87
2022-11-13T05:48:36.054Z,5.79
2022-11-13T05:51:24.331Z,5.74
2022-11-13T05:54:10.832Z,5.69
2022-11-13T05:56:56.190Z,5.43
2022-11-13T05:59:41.617Z,5.50
2022-11-13T06:02:27.197Z,5.52
2022-11-13T06:05:12.650Z,5.64
2022-11-13T06:07:58.352Z,5.70
2022-11-13T06:10:43.893Z,5.56
2022-11-13T06:13:30.123Z,5.45
2022-11-13T06:16:20.469Z,5.25
2022-11-13T06:19:08.687Z,5.75
2022-11-13T06:21:54.204Z,5.72
2022-11-13T06:24:39.780Z,5.83
2022-11-13T06:27:25.102Z,5.87
2022-11-13T06:30:10.949Z,5.88
2022-11-13T06:32:56.604Z,5.93
2022-11-13T06:35:42.003Z,5.78
2022-11-13T06:38:30.221Z,6.00
2022-11-13T06:41:17.969Z,6.02
2022-11-13T06:44:03.679Z,5.99
2022-11-13T06:46:49.154Z,6.06
2022-11-13T06:49:34.463Z,6.14
2022-11-13T06:52:20.034Z,6.13
2022-11-13T06:55:05.934Z,6.31
2022-11-13T06:57:51.488Z,6.37
2022-11-13T07:00:39.777Z,6.22
2022-11-13T07:03:27.233Z,6.57
2022-11-13T07:06:18.984Z,6.53
2022-11-13T07:09:04.860Z,6.47
2022-11-13T07:11:50.048Z,6.67
2022-11-13T07:14:35.239Z,6.93
2022-11-13T07:17:20.792Z,6.72
2022-11-13T07:20:06.651Z,6.98
2022-11-13T07:22:55.932Z,6.89
2022-11-13T07:25:41.606Z,7.06
2022-11-13T07:28:27.322Z,7.21
2022-11-13T07:31:14.182Z,7.37
2022-11-13T07:33:59.520Z,7.18
2022-11-13T07:36:44.580Z,7.62
2022-11-13T07:39:30.085Z,7.76
2022-11-13T07:42:15.852Z,7.72
2022-11-13T07:45:01.342Z,7.82
2022-11-13T07:47:47.053Z,8.09
2022-11-13T07:50:34.187Z,8.24
2022-11-13T07:53:20.808Z,8.08
2022-11-13T07:56:07.053Z,8.25
2022-11-13T07:58:52.510Z,8.41
2022-11-13T08:01:38.541Z,8.56
2022-11-13T08:04:24.282Z,8.72
2022-11-13T08:07:13.082Z,8.86
2022-11-13T08:10:00.128Z,9.18
2022-11-13T08:12:46.182Z,9.35
2022-11-13T08:15:32.412Z,9.44
2022-11-13T08:18:18.209Z,9.60
2022-11-13T08:21:11.899Z,9.60
2022-11-13T08:24:00.646Z,9.78
2022-11-13T08:26:46.178Z,9.89
2022-11-13T08:29:31.652Z,9.78
2022-11-13T08:32:19.137Z,10.11
2022-11-13T08:35:05.325Z,10.19
2022-11-13T08:37:50.864Z,10.00
2022-11-13T08:40:36.341Z,10.32
2022-11-13T08:43:21.909Z,10.26
2022-11-13T08:46:07.894Z,10.32
2022-11-13T08:48:53.204Z,10.41
2022-11-13T08:51:38.843Z,10.60
2022-11-13T08:54:24.555Z,10.61
2022-11-13T08:57:09.920Z,10.53
2022-11-13T08:59:55.428Z,10.51
2022-11-13T09:02:41.150Z,10.62
2022-11-13T09:05:27.290Z,10.69
2022-11-13T09:08:12.722Z,10.70
2022-11-13T09:11:02.680Z,11.02
2022-11-13T09:13:52.940Z,11.09
2022-11-13T09:16:38.981Z,11.28
2022-11-13T09:19:24.561Z,11.40
2022-11-13T09:22:11.000Z,11.48
2022-11-13T09:24:56.610Z,11.55
2022-11-13T09:27:42.064Z,11.71
2022-11-13T09:30:30.071Z,11.73
2022-11-13T09:33:15.693Z,11.96
2022-11-13T09:36:01.098Z,11.99
2022-11-13T09:38:46.768Z,12.02
2022-11-13T09:41:38.022Z,11.85
2022-11-13T09:44:39.302Z,12.13
2022-11-13T09:47:30.549Z,12.34
2022-11-13T09:50:26.285Z,12.36
2022-11-13T09:53:14.756Z,12.29
2022-11-13T09:56:25.489Z,12.70
2022-11-13T09:59:17.019Z,12.78
2022-11-13T10:02:11.228Z,12.67
2022-11-13T10:05:06.748Z,12.93
2022-11-13T10:08:05.545Z,13.03
2022-11-13T10:11:10.081Z,13.14
2022-11-13T10:14:12.175Z,13.21
2022-11-13T10:17:36.140Z,13.33
2022-11-13T10:20:34.139Z,13.40
2022-11-13T10:23:28.567Z,13.49
2022-11-13T10:26:19.882Z,13.51
2022-11-13T10:29:15.679Z,13.67
2022-11-13T10:32:22.247Z,13.55
2022-11-13T10:35:07.820Z,13.82
2022-11-13T10:38:08.174Z,13.96
2022-11-13T10:41:06.959Z,13.74
2022-11-13T10:43:59.792Z,14.06
2022-11-13T10:46:45.059Z,14.17
2022-11-13T10:49:30.746Z,14.05
2022-11-13T10:52:25.735Z,14.27
2022-11-13T10:55:18.223Z,14.37
2022-11-13T10:58:12.600Z,14.43
2022-11-13T11:00:58.277Z,14.34
2022-11-13T11:03:50.508Z,14.54
2022-11-13T11:07:17.856Z,13.95
2022-11-13T11:09:49.891Z,14.62
2022-11-13T11:12:35.262Z,14.49
2022-11-13T11:15:29.530Z,14.76
2022-11-13T11:18:26.663Z,14.85
2022-11-13T11:21:35.028Z,14.56
2022-11-13T11:24:30.114Z,14.75
2022-11-13T11:27:23.287Z,14.67
2022-11-13T11:30:23.747Z,14.97
2022-11-13T11:33:12.186Z,15.00
2022-11-13T11:36:13.552Z,15.06
2022-11-13T11:39:40.578Z,15.09
2022-11-13T11:43:08.274Z,15.14
2022-11-13T11:45:54.057Z,15.03
2022-11-13T11:48:40.620Z,15.09
2022-11-13T11:51:39.976Z,15.13
2022-11-13T11:54:51.555Z,15.09
2022-11-13T11:57:54.893Z,14.94
2022-11-13T12:00:49.992Z,14.97
2022-11-13T12:03:44.771Z,14.92
2022-11-13T12:06:50.242Z,14.87
2022-11-13T12:09:47.615Z,14.76
2022-11-13T12:12:54.541Z,14.85
2022-11-13T12:16:02.337Z,14.85
2022-11-13T12:19:11.198Z,14.82
2022-11-13T12:22:07.780Z,14.81
2022-11-13T12:25:01.541Z,14.78
2022-11-13T12:28:05.259Z,14.78
2022-11-13T12:31:06.313Z,14.81
2022-11-13T12:34:04.095Z,14.76
2022-11-13T12:36:50.294Z,14.72
2022-11-13T12:40:16.223Z,14.81
2022-11-13T12:43:07.789Z,14.87
2022-11-13T12:45:56.004Z,14.85
2022-11-13T12:48:47.127Z,14.90
2022-11-13T12:51:40.682Z,14.64
2022-11-13T12:54:37.470Z,14.62
2022-11-13T12:57:30.168Z,14.63
2022-11-13T13:00:31.101Z,14.65
2022-11-13T13:03:28.619Z,14.72
2022-11-13T13:06:28.460Z,14.39
2022-11-13T13:09:44.889Z,14.72
2022-11-13T13:12:49.655Z,14.76
2022-11-13T13:15:42.015Z,14.72
2022-11-13T13:18:33.863Z,14.71
2022-11-13T13:21:20.805Z,14.32
2022-11-13T13:24:30.014Z,14.54
2022-11-13T13:27:28.192Z,14.36
2022-11-13T13:30:25.306Z,14.33
2022-11-13T13:33:22.227Z,14.33
2022-11-13T13:36:43.153Z,14.23
2022-11-13T13:39:52.999Z,13.69
2022-11-13T13:43:06.486Z,13.50
2022-11-13T13:46:22.103Z,13.54
2022-11-13T13:49:14.671Z,13.52
2022-11-13T13:52:00.449Z,13.35
2022-11-13T13:54:47.783Z,13.35
2022-11-13T13:57:39.879Z,13.30
2022-11-13T14:00:26.445Z,13.27
2022-11-13T14:03:30.177Z,13.25
2022-11-13T14:06:20.564Z,13.12
2022-11-13T14:09:19.205Z,13.11
2022-11-13T14:12:18.677Z,12.99
2022-11-13T14:15:06.135Z,12.81
2022-11-13T14:17:52.340Z,12.76
2022-11-13T14:20:45.060Z,12.55
2022-11-13T14:23:44.376Z,12.50
2022-11-13T14:26:30.448Z,12.57
2022-11-13T14:29:23.287Z,12.61
2022-11-13T14:32:22.304Z,12.49
2022-11-13T14:35:09.685Z,12.23
2022-11-13T14:37:56.161Z,12.32
2022-11-13T14:40:48.076Z,12.10
2022-11-13T14:43:34.204Z,11.98
2022-11-13T14:46:27.481Z,12.14
2022-11-13T14:49:30.304Z,11.85
2022-11-13T14:52:29.177Z,11.85
2022-11-13T14:55:23.763Z,11.90
2022-11-13T14:58:13.963Z,11.80
2022-11-13T15:01:23.349Z,11.49
2022-11-13T15:04:08.933Z,11.47
2022-11-13T15:07:00.893Z,11.28
2022-11-13T15:09:46.216Z,11.15
2022-11-13T15:12:31.895Z,10.94
2022-11-13T15:15:19.105Z,11.27
2022-11-13T15:18:05.593Z,11.14
2022-11-13T15:20:51.180Z,11.00
2022-11-13T15:23:36.979Z,10.84
2022-11-13T15:26:22.346Z,10.93
2022-11-13T15:29:08.211Z,10.68
2022-11-13T15:31:54.710Z,10.40
2022-11-13T15:34:40.714Z,10.73
2022-11-13T15:37:26.520Z,10.69
2022-11-13T15:40:13.790Z,10.63
2022-11-13T15:43:01.395Z,10.46
2022-11-13T15:45:47.033Z,10.63
2022-11-13T15:48:32.765Z,10.15
2022-11-13T15:51:43.829Z,10.32
2022-11-13T15:54:33.506Z,10.14
2022-11-13T15:57:24.401Z,9.97
2022-11-13T16:00:15.007Z,10.05
2022-11-13T16:03:00.856Z,9.97
2022-11-13T16:05:46.446Z,9.82
2022-11-13T16:08:31.986Z,9.83
2022-11-13T16:11:19.745Z,9.88
2022-11-13T16:14:05.855Z,9.88
2022-11-13T16:16:52.197Z,9.78
2022-11-13T16:19:38.749Z,9.76
2022-11-13T16:22:26.067Z,9.53
2022-11-13T16:25:14.403Z,9.52
2022-11-13T16:27:59.931Z,9.48
2022-11-13T16:30:46.371Z,9.22
2022-11-13T16:33:32.158Z,9.43
2022-11-13T16:36:22.433Z,9.20
2022-11-13T16:39:16.493Z,9.31
2022-11-13T16:42:02.358Z,9.38
2022-11-13T16:44:48.136Z,9.27
2022-11-13T16:47:33.735Z,9.17
2022-11-13T16:50:24.144Z,8.85
2022-11-13T16:53:11.133Z,9.02
2022-11-13T16:55:56.967Z,9.05
2022-11-13T16:58:42.692Z,8.96
2022-11-13T17:01:28.168Z,8.75
2022-11-13T17:04:16.751Z,8.80
2022-11-13T17:07:02.648Z,8.75
2022-11-13T17:09:58.852Z,8.82
2022-11-13T17:12:54.258Z,8.78
2022-11-13T17:15:39.841Z,8.65
2022-11-13T17:18:25.204Z,8.73
2022-11-13T17:21:11.436Z,8.68
2022-11-13T17:24:01.465Z,8.57
2022-11-13T17:26:46.715Z,8.68
2022-11-13T17:29:32.453Z,8.71
2022-11-13T17:32:18.327Z,8.15
2022-11-13T17:35:06.026Z,8.52
2022-11-13T17:37:51.529Z,8.38
2022-11-13T17:40:37.053Z,8.54
2022-11-13T17:43:22.669Z,8.48
2022-11-13T17:46:17.208Z,8.50
2022-11-13T17:49:03.144Z,8.47
2022-11-13T17:51:48.687Z,8.26
2022-11-13T17:54:34.192Z,8.47
2022-11-13T17:57:24.180Z,8.53
2022-11-13T18:00:12.870Z,8.31
2022-11-13T18:02:58.595Z,8.22
2022-11-13T18:05:44.987Z,8.44
2022-11-13T18:08:30.458Z,8.26
2022-11-13T18:11:21.561Z,8.33
2022-11-13T18:14:06.836Z,8.23
2022-11-13T18:16:52.507Z,8.34
2022-11-13T18:19:38.495Z,8.32
2022-11-13T18:22:23.991Z,8.22
2022-11-13T18:25:09.690Z,8.37
2022-11-13T18:27:55.417Z,8.29
2022-11-13T18:30:41.302Z,8.00
2022-11-13T18:33:26.952Z,7.99
2022-11-13T18:36:12.831Z,8.21
2022-11-13T18:38:59.468Z,8.15
2022-11-13T18:41:44.784Z,7.48
2022-11-13T18:44:30.377Z,8.08
2022-11-13T18:47:15.893Z,7.99
2022-11-13T18:50:01.273Z,7.99
2022-11-13T18:52:46.881Z,8.19
2022-11-13T18:55:32.199Z,8.01
2022-11-13T18:58:18.036Z,8.18
2022-11-13T19:01:20.525Z,8.14
2022-11-13T19:04:24.329Z,8.08
2022-11-13T19:07:12.401Z,7.99
2022-11-13T19:09:58.384Z,8.09
2022-11-13T19:12:43.706Z,7.96
2022-11-13T19:15:29.532Z,7.89
2022-11-13T19:18:15.202Z,8.00
2022-11-13T19:21:09.241Z,8.05
2022-11-13T19:23:55.426Z,7.80
2022-11-13T19:26:41.912Z,7.93
2022-11-13T19:29:27.564Z,7.87
2022-11-13T19:32:13.028Z,7.89
2022-11-13T19:34:58.561Z,7.94
2022-11-13T19:37:44.224Z,8.02
2022-11-13T19:40:29.924Z,7.88
2022-11-13T19:43:15.517Z,7.72
2022-11-13T19:46:05.673Z,7.90
2022-11-13T19:48:51.818Z,7.65
2022-11-13T19:51:37.727Z,7.68
2022-11-13T19:54:23.419Z,7.69
2022-11-13T19:57:09.002Z,7.44
2022-11-13T19:59:54.401Z,7.48
2022-11-13T20:02:40.087Z,7.66
2022-11-13T20:05:25.263Z,7.65
2022-11-13T20:08:12.940Z,7.65
2022-11-13T20:11:04.074Z,7.60
2022-11-13T20:13:49.501Z,7.52
2022-11-13T20:16:34.959Z,7.47
2022-11-13T20:19:20.381Z,7.22
2022-11-13T20:22:05.859Z,7.23
2022-11-13T20:24:51.275Z,7.37
2022-11-13T20:27:37.531Z,7.18
2022-11-13T20:30:23.209Z,7.33
2022-11-13T20:33:08.580Z,7.23
2022-11-13T20:35:54.670Z,7.31
2022-11-13T20:38:41.037Z,7.17
2022-11-13T20:41:26.486Z,6.85
2022-11-13T20:44:12.565Z,7.20
2022-11-13T20:46:58.241Z,7.08
2022-11-13T20:49:43.790Z,7.27
2022-11-13T20:52:29.270Z,6.98
2022-11-13T20:55:14.247Z,7.16
2022-11-13T20:57:59.821Z,6.84
2022-11-13T21:00:45.406Z,6.96
2022-11-13T21:03:31.116Z,7.09
2022-11-13T21:06:19.385Z,6.93
2022-11-13T21:09:05.704Z,7.08
2022-11-13T21:11:51.331Z,7.00
2022-11-13T21:14:36.790Z,7.06
2022-11-13T21:17:22.511Z,6.60
2022-11-13T21:20:08.551Z,7.02
2022-11-13T21:22:54.344Z,6.85
2022-11-13T21:25:40.353Z,6.83
2022-11-13T21:28:30.594Z,6.67
2022-11-13T21:31:19.517Z,6.64
2022-11-13T21:34:04.972Z,6.43
2022-11-13T21:36:50.507Z,6.63
2022-11-13T21:39:35.723Z,6.64
2022-11-13T21:42:21.054Z,6.49
2022-11-13T21:45:06.922Z,6.49
2022-11-13T21:47:53.127Z,6.63
2022-11-13T21:50:38.882Z,6.61
2022-11-13T21:53:24.468Z,6.58
2022-11-13T21:56:15.436Z,6.65
2022-11-13T21:59:01.806Z,6.41
2022-11-13T22:01:47.375Z,6.34
2022-11-13T22:04:32.824Z,6.53
2022-11-13T22:07:18.408Z,6.45
2022-11-13T22:10:08.175Z,6.42
2022-11-13T22:12:54.081Z,6.32
2022-11-13T22:15:39.673Z,6.31
2022-11-13T22:18:25.253Z,6.15
2022-11-13T22:21:13.139Z,6.27
2022-11-13T22:24:00.120Z,6.11
2022-11-13T22:26:45.966Z,6.38
2022-11-13T22:29:31.477Z,6.08
2022-11-13T22:32:17.053Z,6.28
2022-11-13T22:35:02.320Z,5.97
2022-11-13T22:37:47.812Z,6.28
2022-11-13T22:40:33.502Z,6.28
2022-11-13T22:43:19.251Z,6.28
2022-11-13T22:46:06.464Z,5.88
2022-11-13T22:48:53.733Z,6.16
2022-11-13T22:51:41.761Z,6.15
2022-11-13T22:54:27.519Z,5.86
2022-11-13T22:57:12.869Z,6.15
2022-11-13T22:59:58.329Z,5.98
2022-11-13T23:02:47.288Z,6.11
2022-11-13T23:05:35.938Z,6.13
2022-11-13T23:08:21.398Z,5.98
2022-11-13T23:11:11.127Z,6.08
2022-11-13T23:13:59.229Z,6.02
2022-11-13T23:16:44.928Z,6.06
2022-11-13T23:19:30.384Z,5.98
2022-11-13T23:22:15.751Z,5.92
2022-11-13T23:25:01.252Z,6.02
2022-11-13T23:27:47.875Z,5.99
2022-11-13T23:30:33.287Z,5.98
2022-11-13T23:33:19.457Z,5.76
2022-11-13T23:36:06.353Z,5.75
2022-11-13T23:38:51.803Z,5.85
2022-11-13T23:41:37.276Z,5.79
2022-11-13T23:44:22.919Z,5.63
2022-11-13T23:47:08.500Z,5.53
2022-11-13T23:49:54.152Z,5.57
2022-11-13T23:52:39.598Z,5.77
2022-11-13T23:55:25.130Z,5.56
2022-11-13T23:58:16.579Z,5.82
